Time;durP1;ratioP1;P1;durP2;ratioP2;P2;SDS_P1;SDS_P2;PMS_P1;PMS_P2;Temp;Humidity;BMP_temperature;BMP_pressure;BME280_temperature;BME280_humidity;BME280_pressure;Samples;Min_cycle;Max_cycle;Signal;HPM_P1;HPM_P2
2023/01/02 00:02:15;;;;;;;0.53;0.53;;;;;;;4.87;100.00;100929.50;5055097;28;20208;-64
2023/01/02 00:04:42;;;;;;;0.97;0.97;;;;;;;4.84;100.00;100929.47;5056413;28;20657;-64
2023/01/02 00:07:09;;;;;;;0.90;0.90;;;;;;;4.84;100.00;100937.09;5056596;28;20664;-64
2023/01/02 00:09:36;;;;;;;0.70;0.70;;;;;;;4.77;100.00;100933.59;5057014;28;20197;-64
2023/01/02 00:12:05;;;;;;;0.53;0.53;;;;;;;4.75;100.00;100935.22;5056507;28;20212;-63
2023/01/02 00:14:32;;;;;;;1.17;1.17;;;;;;;4.75;100.00;100940.28;5054101;28;20192;-64
2023/01/02 00:16:58;;;;;;;0.60;0.60;;;;;;;4.68;100.00;100920.72;5055916;28;20258;-63
2023/01/02 00:19:25;;;;;;;0.57;0.57;;;;;;;4.75;100.00;100935.22;5056765;28;20197;-64
2023/01/02 00:21:52;;;;;;;0.60;0.60;;;;;;;4.74;100.00;100941.16;5056659;28;20196;-63
2023/01/02 00:24:19;;;;;;;0.50;0.50;;;;;;;4.72;100.00;100936.03;5056646;28;20197;-63
2023/01/02 00:26:45;;;;;;;0.50;0.50;;;;;;;4.71;100.00;100933.47;5056641;28;20266;-64
2023/01/02 00:29:14;;;;;;;0.50;0.50;;;;;;;4.72;100.00;100932.63;5052856;28;20243;-63
2023/01/02 00:31:40;;;;;;;0.60;0.60;;;;;;;4.74;100.00;100938.59;5050409;28;20212;-63
2023/01/02 00:34:09;;;;;;;0.70;0.70;;;;;;;4.71;100.00;100941.09;5051978;28;20775;-64
2023/01/02 00:36:35;;;;;;;0.60;0.60;;;;;;;4.72;100.00;100945.31;5053402;28;20201;-64
2023/01/02 00:39:02;;;;;;;3.33;2.03;;;;;;;4.73;100.00;100952.13;5053132;28;20204;-64
2023/01/02 00:41:29;;;;;;;0.70;0.70;;;;;;;4.67;100.00;100936.78;5052823;28;20251;-63
2023/01/02 00:43:56;;;;;;;0.53;0.53;;;;;;;4.65;100.00;100953.69;5053224;28;20738;-64
2023/01/02 00:46:24;;;;;;;0.50;0.50;;;;;;;4.62;100.00;100946.84;5053136;28;20217;-63
2023/01/02 00:48:51;;;;;;;0.70;0.70;;;;;;;4.62;100.00;100939.22;5053312;28;20197;-64
2023/01/02 00:51:17;;;;;;;0.70;0.70;;;;;;;4.62;100.00;100935.84;5053009;28;20219;-64
2023/01/02 00:53:44;;;;;;;0.50;0.50;;;;;;;4.54;100.00;100930.63;5052837;28;20739;-63
2023/01/02 00:56:11;;;;;;;0.50;0.50;;;;;;;4.60;100.00;100938.34;5052987;28;20197;-63
2023/01/02 00:58:38;;;;;;;0.73;0.73;;;;;;;4.58;100.00;100937.47;5052296;28;20201;-63
2023/01/02 01:01:05;;;;;;;0.60;0.60;;;;;;;4.58;100.00;100934.94;5052874;28;20202;-63
2023/01/02 01:03:33;;;;;;;0.57;0.57;;;;;;;4.59;100.00;100930.69;5052144;28;20766;-63
2023/01/02 01:06:00;;;;;;;0.60;0.60;;;;;;;4.57;100.00;100930.69;5052678;28;20192;-63
2023/01/02 01:08:26;;;;;;;0.63;0.63;;;;;;;4.50;100.00;100933.06;5052781;28;20194;-63
2023/01/02 01:10:53;;;;;;;1.20;1.20;;;;;;;4.50;100.00;100927.97;5052490;28;20216;-63
2023/01/02 01:13:20;;;;;;;0.60;0.60;;;;;;;4.49;100.00;100921.22;5052581;28;20200;-63
2023/01/02 01:15:47;;;;;;;0.50;0.50;;;;;;;4.49;100.00;100923.75;5052460;28;20201;-63
2023/01/02 01:18:13;;;;;;;0.50;0.50;;;;;;;4.42;100.00;100915.16;5052481;28;20209;-64
2023/01/02 01:20:41;;;;;;;0.57;0.57;;;;;;;4.49;100.00;100911.88;5052050;28;20263;-63
2023/01/02 01:23:08;;;;;;;0.50;0.50;;;;;;;4.50;100.00;100920.38;5052474;28;20200;-63
2023/01/02 01:25:37;;;;;;;0.60;0.60;;;;;;;4.40;100.00;100900.72;5052501;28;20200;-64
2023/01/02 01:28:04;;;;;;;0.70;0.70;;;;;;;4.47;100.00;100915.22;5051893;28;20189;-63
2023/01/02 01:30:30;;;;;;;0.67;0.67;;;;;;;4.46;100.00;100913.53;5051797;28;20669;-63
2023/01/02 01:32:58;;;;;;;1.20;1.20;;;;;;;4.38;100.00;100892.22;5051724;28;20204;-63
2023/01/02 01:35:24;;;;;;;0.50;0.50;;;;;;;4.44;100.00;100905.03;5052199;28;20251;-63
2023/01/02 01:37:53;;;;;;;1.23;1.07;;;;;;;4.41;100.00;100900.75;5051575;28;20239;-63
2023/01/02 01:40:19;;;;;;;0.57;0.57;;;;;;;4.33;100.00;100891.28;5052119;28;20562;-63
2023/01/02 01:42:46;;;;;;;0.50;0.50;;;;;;;4.39;100.00;100906.63;5051967;28;20254;-64
2023/01/02 01:45:14;;;;;;;0.60;0.60;;;;;;;4.38;100.00;100902.38;5051738;28;20208;-63
2023/01/02 01:47:45;;;;;;;0.50;0.50;;;;;;;4.36;100.00;100894.75;5051576;28;20200;-64
2023/01/02 01:50:15;;;;;;;0.50;0.50;;;;;;;4.36;100.00;100894.75;5051316;28;20281;-63
2023/01/02 01:52:47;;;;;;;0.77;0.77;;;;;;;4.34;100.00;100886.22;5050599;28;20278;-63
2023/01/02 01:55:18;;;;;;;0.60;0.60;;;;;;;4.36;100.00;100888.81;5051798;28;20667;-63
2023/01/02 01:57:49;;;;;;;0.50;0.50;;;;;;;4.33;100.00;100888.75;5051855;28;20197;-63
2023/01/02 02:00:17;;;;;;;0.67;0.67;;;;;;;4.29;100.00;100887.84;5051603;28;20293;-63
2023/01/02 02:02:48;;;;;;;0.57;0.57;;;;;;;4.19;100.00;100893.56;5050708;28;20258;-63
2023/01/02 02:05:19;;;;;;;0.50;0.50;;;;;;;4.12;100.00;100895.13;5051385;28;20219;-63
2023/01/02 02:07:54;;;;;;;0.60;0.60;;;;;;;4.13;100.00;100890.91;5051037;28;20192;-63
2023/01/02 02:10:22;;;;;;;0.63;0.63;;;;;;;4.09;100.00;100889.13;5051353;28;20603;-63
2023/01/02 02:12:49;;;;;;;0.50;0.50;;;;;;;4.04;100.00;100886.47;5051207;28;20216;-63
2023/01/02 02:15:27;;;;;;;0.50;0.50;;;;;;;3.95;100.00;100886.31;5050858;28;20696;-63
2023/01/02 02:18:04;;;;;;;0.60;0.60;;;;;;;3.87;100.00;100884.44;5051123;28;20200;-63
2023/01/02 02:20:43;;;;;;;0.60;0.60;;;;;;;3.88;100.00;100889.53;5051096;28;20197;-63
2023/01/02 02:23:39;;;;;;;0.50;0.50;;;;;;;3.87;100.00;100892.94;5051263;28;20251;-63
2023/01/02 02:26:45;;;;;;;0.60;0.60;;;;;;;3.87;100.00;100887.84;5049744;28;20196;-63
2023/01/02 02:29:41;;;;;;;0.50;0.50;;;;;;;3.75;100.00;100882.50;5050643;28;20251;-63
2023/01/02 02:32:20;;;;;;;0.60;0.60;;;;;;;3.73;100.00;100881.63;5050040;28;20681;-63
2023/01/02 02:34:54;;;;;;;1.10;1.10;;;;;;;3.72;100.00;100882.44;5050363;28;20204;-63
2023/01/02 02:37:28;;;;;;;0.80;0.80;;;;;;;3.73;100.00;100874.00;5050977;28;20196;-63
2023/01/02 02:40:09;;;;;;;0.70;0.70;;;;;;;3.70;100.00;100859.59;5050896;28;20203;-63
2023/01/02 02:42:44;;;;;;;0.60;0.60;;;;;;;3.65;100.00;100855.25;5050494;28;20573;-63
2023/01/02 02:45:20;;;;;;;0.60;0.60;;;;;;;3.69;100.00;100857.00;5050534;28;20223;-63
2023/01/02 02:47:52;;;;;;;0.50;0.50;;;;;;;3.71;100.00;100850.31;5050850;28;20684;-63
2023/01/02 02:50:26;;;;;;;0.60;0.60;;;;;;;3.75;100.00;100847.00;5050318;28;20250;-63
2023/01/02 02:52:58;;;;;;;0.50;0.50;;;;;;;3.74;100.00;100854.59;5049603;28;21136;-63
2023/01/02 02:55:30;;;;;;;0.60;0.60;;;;;;;3.74;100.00;100855.44;5050467;28;20208;-63
2023/01/02 02:57:59;;;;;;;1.03;1.03;;;;;;;3.75;100.00;100852.06;5049928;28;20207;-63
2023/01/02 03:00:26;;;;;;;0.70;0.70;;;;;;;3.74;100.00;100849.50;5050391;28;20208;-63
2023/01/02 03:02:54;;;;;;;0.97;0.97;;;;;;;3.66;100.00;100846.81;5049993;28;20688;-63
2023/01/02 03:05:25;;;;;;;0.60;0.60;;;;;;;3.53;100.00;100834.69;5050330;28;20201;-63
2023/01/02 03:07:58;;;;;;;0.50;0.50;;;;;;;3.59;100.00;100845.81;5050379;28;20204;-63
2023/01/02 03:10:34;;;;;;;1.03;1.03;;;;;;;3.61;100.00;100856.88;5050757;28;20255;-63
2023/01/02 03:13:10;;;;;;;0.60;0.60;;;;;;;3.59;100.00;100844.97;5048590;28;20208;-63
2023/01/02 03:15:41;;;;;;;0.60;0.60;;;;;;;3.57;100.00;100839.03;5050299;28;20200;-63
2023/01/02 03:18:19;;;;;;;0.90;0.90;;;;;;;3.61;100.00;100849.28;5050416;28;20205;-63
2023/01/02 03:21:02;;;;;;;1.53;1.53;;;;;;;3.59;100.00;100843.28;5050786;28;20687;-63
2023/01/02 03:23:34;;;;;;;0.87;0.87;;;;;;;3.55;100.00;100854.22;5048384;28;20208;-63
2023/01/02 03:26:03;;;;;;;0.50;0.50;;;;;;;3.48;100.00;100854.03;5049802;28;20197;-63
2023/01/02 03:28:32;;;;;;;0.60;0.60;;;;;;;3.44;100.00;100858.19;5047731;28;20200;-63
2023/01/02 03:31:02;;;;;;;0.73;0.73;;;;;;;3.32;100.00;100840.19;5050056;28;20201;-63
2023/01/02 03:33:35;;;;;;;0.63;0.63;;;;;;;3.38;100.00;100854.66;5050324;28;20711;-63
2023/01/02 03:36:09;;;;;;;0.60;0.60;;;;;;;3.37;100.00;100853.81;5050571;28;20250;-63
2023/01/02 03:38:40;;;;;;;1.20;1.20;;;;;;;3.37;100.00;100868.16;5050625;28;20258;-63
2023/01/02 03:41:11;;;;;;;0.60;0.60;;;;;;;3.40;100.00;100860.59;5050268;28;20672;-63
2023/01/02 03:43:41;;;;;;;0.50;0.50;;;;;;;3.39;100.00;100861.47;5047552;28;20196;-63
2023/01/02 03:46:13;;;;;;;0.50;0.50;;;;;;;3.40;100.00;100868.22;5050041;28;20196;-63
2023/01/02 03:48:48;;;;;;;1.07;1.07;;;;;;;3.37;100.00;100847.88;5049894;28;20193;-63
2023/01/02 03:51:14;;;;;;;0.60;0.60;;;;;;;3.42;100.00;100864.91;5050212;28;20207;-63
2023/01/02 03:53:41;;;;;;;0.63;0.63;;;;;;;3.41;100.00;100872.47;5049001;28;20197;-64
2023/01/02 03:56:17;;;;;;;0.60;0.60;;;;;;;3.38;100.00;100872.41;5050343;28;20196;-63
2023/01/02 03:58:49;;;;;;;0.60;0.60;;;;;;;3.28;100.00;100878.09;5049946;28;20207;-64
2023/01/02 04:01:32;;;;;;;0.70;0.70;;;;;;;3.27;100.00;100878.91;5050396;28;20208;-64
2023/01/02 04:04:08;;;;;;;0.60;0.60;;;;;;;3.25;100.00;100878.03;5050721;28;20247;-63
2023/01/02 04:06:41;;;;;;;0.90;0.90;;;;;;;3.06;100.00;100857.34;5053614;28;20196;-64
2023/01/02 04:09:12;;;;;;;0.60;0.60;;;;;;;3.17;100.00;100886.28;5051363;28;20734;-63
2023/01/02 04:11:45;;;;;;;0.60;0.60;;;;;;;3.20;100.00;100882.13;5053635;28;20217;-64
2023/01/02 04:14:17;;;;;;;0.70;0.70;;;;;;;3.06;100.00;100861.53;5053841;28;20263;-63
2023/01/02 04:16:47;;;;;;;0.60;0.60;;;;;;;3.15;100.00;100877.81;5053424;28;20197;-63
2023/01/02 04:19:21;;;;;;;0.63;0.63;;;;;;;3.16;100.00;100888.81;5053806;28;20211;-64
2023/01/02 04:21:49;;;;;;;0.50;0.50;;;;;;;3.20;100.00;100884.66;5053496;28;20246;-64
2023/01/02 04:24:21;;;;;;;0.70;0.70;;;;;;;3.18;100.00;100889.69;5050876;28;20197;-64
2023/01/02 04:26:52;;;;;;;0.80;0.80;;;;;;;3.16;100.00;100894.75;5053313;28;20291;-63
2023/01/02 04:29:19;;;;;;;1.13;1.03;;;;;;;3.15;100.00;100887.94;5052298;28;20553;-63
2023/01/02 04:31:50;;;;;;;1.07;1.07;;;;;;;3.12;100.00;100890.41;5053218;28;20209;-63
2023/01/02 04:34:21;;;;;;;0.70;0.70;;;;;;;3.05;100.00;100880.94;5053602;28;20669;-63
2023/01/02 04:36:48;;;;;;;0.67;0.67;;;;;;;3.06;100.00;100880.13;5053066;28;20212;-63
2023/01/02 04:39:15;;;;;;;0.60;0.60;;;;;;;2.84;100.00;100834.88;5053252;28;20291;-64
2023/01/02 04:41:42;;;;;;;0.70;0.70;;;;;;;3.09;100.00;100877.66;5052949;28;20592;-63
2023/01/02 04:44:09;;;;;;;0.60;0.60;;;;;;;3.10;100.00;100874.31;5052869;28;20286;-63
2023/01/02 04:46:36;;;;;;;0.63;0.63;;;;;;;3.10;100.00;100869.22;5053070;28;20250;-63
2023/01/02 04:49:02;;;;;;;0.60;0.60;;;;;;;3.00;100.00;100871.53;5052926;28;20657;-64
2023/01/02 04:51:31;;;;;;;1.00;1.00;;;;;;;2.97;100.00;100862.16;5050234;28;20201;-63
2023/01/02 04:53:57;;;;;;;0.50;0.50;;;;;;;2.90;100.00;100869.59;5052444;28;20197;-63
2023/01/02 04:56:24;;;;;;;5.43;1.27;;;;;;;2.94;100.00;100872.22;5052811;28;20200;-63
2023/01/02 04:58:51;;;;;;;0.50;0.50;;;;;;;2.96;100.00;100867.22;5052557;28;20681;-63
2023/01/02 05:01:20;;;;;;;0.60;0.60;;;;;;;2.95;100.00;100873.94;5053010;28;20200;-63
2023/01/02 05:03:48;;;;;;;0.50;0.50;;;;;;;2.96;100.00;100878.19;5052593;28;20225;-63
2023/01/02 05:06:16;;;;;;;0.70;0.70;;;;;;;2.95;100.00;100879.00;5052720;28;20201;-63
2023/01/02 05:08:45;;;;;;;0.60;0.60;;;;;;;2.94;100.00;100872.22;5052426;28;20207;-63
2023/01/02 05:11:15;;;;;;;0.60;0.60;;;;;;;2.95;100.00;100868.03;5053023;28;20193;-64
2023/01/02 05:13:41;;;;;;;0.60;0.60;;;;;;;2.97;100.00;100862.16;5049156;28;20266;-63
2023/01/02 05:16:09;;;;;;;0.60;0.60;;;;;;;2.98;100.00;100863.88;5052353;28;20211;-63
2023/01/02 05:18:36;;;;;;;0.67;0.67;;;;;;;2.82;100.00;100851.69;5051992;28;20208;-63
2023/01/02 05:21:03;;;;;;;0.50;0.50;;;;;;;2.92;100.00;100862.88;5052408;28;20204;-63
2023/01/02 05:26:16;;;;;;;0.63;0.63;;;;;;;2.92;100.00;100863.75;5052510;28;20274;-63
2023/01/02 05:28:43;;;;;;;0.97;0.97;;;;;;;2.91;100.00;100868.78;5052102;28;20247;-63
2023/01/02 05:31:10;;;;;;;0.80;0.80;;;;;;;2.86;100.00;100871.19;5051849;28;20208;-63
2023/01/02 05:33:37;;;;;;;0.60;0.60;;;;;;;2.89;100.00;100861.13;5051357;28;20213;-63
2023/01/02 05:36:05;;;;;;;0.57;0.57;;;;;;;2.91;100.00;100872.16;5052403;28;20212;-63
2023/01/02 05:38:32;;;;;;;0.50;0.50;;;;;;;2.90;100.00;100870.47;5051939;28;20197;-63
2023/01/02 05:41:01;;;;;;;0.67;0.67;;;;;;;2.81;100.00;100860.09;5052333;28;20284;-63
2023/01/02 05:43:31;;;;;;;0.60;0.60;;;;;;;2.91;100.00;100877.22;5047750;28;20664;-63
2023/01/02 05:45:58;;;;;;;0.70;0.70;;;;;;;2.87;100.00;100885.59;5051496;28;20286;-63
2023/01/02 05:48:25;;;;;;;0.50;0.50;;;;;;;2.87;100.00;100885.59;5051644;28;20270;-64
2023/01/02 05:50:52;;;;;;;0.60;0.60;;;;;;;2.89;100.00;100883.06;5051580;28;20196;-63
2023/01/02 05:53:19;;;;;;;0.50;0.50;;;;;;;2.91;100.00;100876.38;5051786;28;20213;-63
2023/01/02 05:55:46;;;;;;;0.97;0.97;;;;;;;2.93;100.00;100874.75;5051879;28;20197;-63
2023/01/02 05:58:13;;;;;;;0.60;0.60;;;;;;;2.94;100.00;100877.28;5051754;28;20595;-63
2023/01/02 06:00:41;;;;;;;0.63;0.63;;;;;;;2.93;100.00;100869.66;5051235;28;20197;-63
2023/01/02 06:03:07;;;;;;;0.60;0.60;;;;;;;2.93;100.00;100860.41;5051105;28;20624;-63
2023/01/02 06:05:34;;;;;;;0.70;0.70;;;;;;;2.94;100.00;100867.16;5051498;28;20219;-63
2023/01/02 06:08:01;;;;;;;0.60;0.60;;;;;;;2.95;100.00;100868.88;5051517;28;20679;-63
2023/01/02 06:10:28;;;;;;;0.60;0.60;;;;;;;2.92;100.00;100878.09;5051461;28;20196;-63
2023/01/02 06:12:55;;;;;;;3.07;1.13;;;;;;;2.88;100.00;100882.22;5051309;28;20212;-63
2023/01/02 06:15:22;;;;;;;0.50;0.50;;;;;;;2.90;100.00;100889.88;5050448;28;20675;-63
2023/01/02 06:17:50;;;;;;;0.77;0.77;;;;;;;2.89;100.00;100899.13;5051304;28;20204;-63
2023/01/02 06:20:17;;;;;;;1.27;1.27;;;;;;;2.83;100.00;100883.78;5042488;28;20282;-63
2023/01/02 06:22:43;;;;;;;1.17;1.17;;;;;;;2.93;100.00;100900.94;5050411;28;20197;-63
2023/01/02 06:25:10;;;;;;;0.60;0.60;;;;;;;2.91;100.00;100901.72;5050886;28;20197;-63
2023/01/02 06:27:37;;;;;;;0.60;0.60;;;;;;;2.90;100.00;100905.06;5050262;28;20193;-63
2023/01/02 06:30:04;;;;;;;1.10;1.10;;;;;;;2.88;100.00;100912.59;5049697;28;20205;-63
2023/01/02 06:32:31;;;;;;;0.50;0.50;;;;;;;2.91;100.00;100906.78;5049846;28;20618;-63
2023/01/02 06:34:59;;;;;;;0.50;0.50;;;;;;;2.93;100.00;100902.59;5050193;28;20196;-63
2023/01/02 06:37:26;;;;;;;0.50;0.50;;;;;;;2.90;100.00;100895.78;5049166;28;20676;-63
2023/01/02 06:39:53;;;;;;;0.60;0.60;;;;;;;3.00;100.00;100907.00;5050599;28;20201;-63
2023/01/02 06:42:19;;;;;;;0.63;0.63;;;;;;;2.95;100.00;100908.53;5050908;28;20697;-63
2023/01/02 06:44:46;;;;;;;0.50;0.50;;;;;;;2.97;100.00;100915.34;5051152;28;20197;-63
2023/01/02 06:47:13;;;;;;;0.60;0.60;;;;;;;2.97;100.00;100917.06;5049140;28;20270;-63
2023/01/02 06:49:40;;;;;;;0.60;0.60;;;;;;;2.90;100.00;100898.31;5050855;28;20196;-63
2023/01/02 06:52:08;;;;;;;0.60;0.60;;;;;;;2.95;100.00;100911.94;5049439;28;20577;-63
2023/01/02 06:54:34;;;;;;;0.50;0.50;;;;;;;2.98;100.00;100912.00;5047331;28;20212;-63
2023/01/02 06:57:01;;;;;;;0.60;0.60;;;;;;;2.98;100.00;100914.56;5050184;28;20708;-63
2023/01/02 06:59:28;;;;;;;0.60;0.60;;;;;;;2.96;100.00;100911.13;5049051;28;20212;-63
2023/01/02 07:01:55;;;;;;;0.97;0.97;;;;;;;3.03;100.00;100919.75;5049046;28;20612;-66
2023/01/02 07:04:21;;;;;;;1.13;1.13;;;;;;;3.06;100.00;100928.28;5049269;28;20289;-61
2023/01/02 07:06:48;;;;;;;1.03;1.00;;;;;;;3.01;100.00;100914.63;5048428;28;20204;-62
2023/01/02 07:09:16;;;;;;;0.50;0.50;;;;;;;3.10;100.00;100932.56;5049796;28;20212;-61
2023/01/02 07:11:43;;;;;;;1.00;1.00;;;;;;;3.13;100.00;100935.19;5048727;28;20656;-62
2023/01/02 07:14:10;;;;;;;0.80;0.80;;;;;;;3.16;100.00;100934.41;5048586;28;20219;-63
2023/01/02 07:16:37;;;;;;;1.40;1.30;;;;;;;3.18;100.00;100935.31;5049250;28;20208;-63
2023/01/02 07:19:03;;;;;;;0.90;0.90;;;;;;;3.25;100.00;100938.84;5049050;28;20200;-64
2023/01/02 07:21:30;;;;;;;0.60;0.60;;;;;;;3.23;100.00;100935.41;5050096;28;20205;-63
2023/01/02 07:23:57;;;;;;;0.60;0.60;;;;;;;3.28;100.00;100937.25;5049187;28;20197;-63
2023/01/02 07:26:25;;;;;;;1.33;1.33;;;;;;;3.33;100.00;100934.81;5047409;28;20208;-63
2023/01/02 07:28:52;;;;;;;2.30;2.20;;;;;;;3.37;100.00;100929.84;5041835;28;20262;-63
2023/01/02 07:31:19;;;;;;;0.70;0.70;;;;;;;3.43;100.00;100929.97;5049513;28;20200;-62
2023/01/02 07:33:47;;;;;;;0.60;0.60;;;;;;;3.45;100.00;100917.34;5043857;28;20235;-62
2023/01/02 07:36:15;;;;;;;1.27;1.27;;;;;;;3.41;100.00;100910.50;5048046;28;20212;-63
2023/01/02 07:38:42;;;;;;;0.83;0.83;;;;;;;3.47;100.00;100918.22;5050895;28;20668;-63
2023/01/02 07:41:14;;;;;;;0.67;0.67;;;;;;;3.50;100.00;100918.31;5053484;28;20200;-63
2023/01/02 07:43:43;;;;;;;1.00;1.00;;;;;;;3.50;100.00;100918.31;5051417;28;20201;-63
2023/01/02 07:46:09;;;;;;;0.50;0.50;;;;;;;3.50;100.00;100910.69;5051313;28;20581;-63
2023/01/02 07:48:36;;;;;;;0.70;0.70;;;;;;;3.60;100.00;100917.69;5053193;28;20204;-63
2023/01/02 07:51:05;;;;;;;0.60;0.60;;;;;;;3.66;100.00;100907.66;5050615;28;20209;-63
2023/01/02 07:53:32;;;;;;;0.50;0.50;;;;;;;3.70;100.00;100904.38;5052510;28;20618;-62
2023/01/02 07:56:01;;;;;;;0.60;0.60;;;;;;;3.81;100.00;100908.03;5052417;28;20196;-67
2023/01/02 07:58:28;;;;;;;0.53;0.53;;;;;;;4.13;100.00;100906.13;5051121;28;20204;-64
2023/01/02 08:00:57;;;;;;;0.60;0.60;;;;;;;4.28;100.00;100900.47;5052360;28;20211;-64
2023/01/02 08:03:23;;;;;;;0.60;0.60;;;;;;;4.38;100.00;100907.44;5048628;28;20224;-68
2023/01/02 08:05:50;;;;;;;0.40;0.40;;;;;;;4.52;100.00;100911.97;5049784;28;20208;-63
2023/01/02 08:08:17;;;;;;;0.70;0.70;;;;;;;4.66;100.00;100909.66;5052500;28;20208;-63
2023/01/02 08:10:44;;;;;;;0.90;0.90;;;;;;;4.79;100.00;100906.50;5052930;28;20588;-64
2023/01/02 08:13:11;;;;;;;0.70;0.70;;;;;;;4.90;100.00;100902.47;5052403;28;20212;-63
2023/01/02 08:15:38;;;;;;;0.83;0.83;;;;;;;4.95;100.00;100887.28;5051114;28;20201;-64
2023/01/02 08:18:06;;;;;;;0.70;0.70;;;;;;;5.20;100.00;100904.66;5051809;28;20688;-64
2023/01/02 08:20:32;;;;;;;0.83;0.83;;;;;;;5.34;100.00;100897.22;5049010;28;20200;-64
2023/01/02 08:22:59;;;;;;;0.63;0.63;;;;;;;5.41;100.00;100911.72;5049633;28;20197;-64
2023/01/02 08:25:26;;;;;;;0.77;0.77;;;;;;;5.50;100.00;100909.31;5049516;28;20213;-64
2023/01/02 08:27:53;;;;;;;0.60;0.60;;;;;;;5.65;100.00;100899.38;5051186;28;20211;-64
2023/01/02 08:30:20;;;;;;;0.50;0.50;;;;;;;5.78;100.00;100901.25;5051683;28;20270;-64
2023/01/02 08:32:46;;;;;;;0.57;0.57;;;;;;;5.86;100.00;100894.59;5051841;28;20704;-64
2023/01/02 08:35:15;;;;;;;0.70;0.70;;;;;;;5.95;100.00;100892.16;5052276;28;20197;-64
2023/01/02 08:37:42;;;;;;;0.70;0.70;;;;;;;6.03;100.00;100888.03;5050475;28;20259;-64
2023/01/02 08:40:09;;;;;;;0.73;0.73;;;;;;;6.12;100.00;100888.13;5051797;28;20242;-64
2023/01/02 08:42:36;;;;;;;1.00;1.00;;;;;;;6.22;100.00;100882.31;5050876;28;20212;-64
2023/01/02 08:45:03;;;;;;;0.60;0.60;;;;;;;6.38;100.00;100885.00;5050743;28;20208;-65
2023/01/02 08:47:30;;;;;;;0.60;0.60;;;;;;;6.42;100.00;100877.44;5051323;28;20595;-65
2023/01/02 08:49:57;;;;;;;0.73;0.73;;;;;;;6.47;100.00;100874.91;5048931;28;20204;-65
2023/01/02 08:52:25;;;;;;;0.40;0.40;;;;;;;6.54;100.00;100866.50;5051771;28;20669;-65
2023/01/02 08:54:51;;;;;;;0.60;0.60;;;;;;;6.66;100.00;100861.50;5051464;28;20213;-65
2023/01/02 08:57:18;;;;;;;0.50;0.50;;;;;;;6.76;100.00;100868.38;5050332;28;20255;-65
2023/01/02 08:59:45;;;;;;;0.50;0.50;;;;;;;6.86;100.00;100854.88;5050284;28;20201;-64
2023/01/02 09:02:14;;;;;;;0.60;0.60;;;;;;;7.02;100.00;100854.16;5050860;28;20200;-65
2023/01/02 09:04:40;;;;;;;0.60;0.60;;;;;;;7.10;100.00;100857.63;5051596;28;20315;-65
2023/01/02 09:07:07;;;;;;;1.00;1.00;;;;;;;7.05;100.00;100828.69;5051036;28;20653;-64
2023/01/02 09:09:35;;;;;;;1.23;1.23;;;;;;;7.32;100.00;100844.16;5043574;28;20676;-64
2023/01/02 09:12:02;;;;;;;0.70;0.70;;;;;;;7.47;100.00;100845.94;5049716;28;20204;-65
2023/01/02 09:14:29;;;;;;;0.50;0.50;;;;;;;7.56;100.00;100846.00;5050273;28;20217;-65
2023/01/02 09:16:56;;;;;;;0.50;0.50;;;;;;;7.65;100.00;100846.06;5051329;28;20635;-65
2023/01/02 09:19:24;;;;;;;0.80;0.80;;;;;;;7.62;100.00;100827.31;5051337;28;20254;-68
2023/01/02 09:21:50;;;;;;;1.77;1.70;;;;;;;7.79;100.00;100838.44;5050525;28;20207;-68
2023/01/02 09:24:17;;;;;;;0.50;0.50;;;;;;;7.98;100.00;100834.28;5050910;28;20659;-64
2023/01/02 09:26:45;;;;;;;0.80;0.80;;;;;;;8.09;100.00;100823.22;5049652;28;20204;-65
2023/01/02 09:29:15;;;;;;;1.37;1.37;;;;;;;8.30;100.00;100830.94;5049501;28;20200;-65
2023/01/02 09:31:42;;;;;;;0.50;0.50;;;;;;;8.44;100.00;100806.28;5048685;28;20644;-64
2023/01/02 09:34:08;;;;;;;0.80;0.80;;;;;;;8.64;100.00;100820.78;5049346;28;20238;-64
2023/01/02 09:36:35;;;;;;;0.60;0.60;;;;;;;8.78;100.00;100814.84;5050396;28;20208;-65
2023/01/02 09:39:03;;;;;;;0.60;0.60;;;;;;;8.89;100.00;100814.81;5050612;28;20612;-65
2023/01/02 09:41:36;;;;;;;1.37;1.27;;;;;;;8.97;100.00;100797.75;5049867;28;20205;-65
2023/01/02 09:44:10;;;;;;;0.43;0.43;;;;;;;9.16;100.00;100803.69;5049254;28;20975;-64
2023/01/02 09:46:44;;;;;;;0.40;0.40;;;;;;;9.27;100.00;100799.41;5051100;28;20205;-72
2023/01/02 09:49:14;;;;;;;0.43;0.43;;;;;;;9.38;100.00;100795.09;5050524;28;20260;-69
2023/01/02 09:51:41;;;;;;;0.50;0.50;;;;;;;9.50;100.00;100798.47;5049784;28;20648;-65
2023/01/02 09:54:20;;;;;;;1.10;1.10;;;;;;;9.57;100.00;100798.44;5050041;28;20750;-65
2023/01/02 09:56:51;;;;;;;0.50;0.50;;;;;;;9.67;100.00;100802.66;5048784;28;20208;-65
2023/01/02 09:59:27;;;;;;;0.60;0.60;;;;;;;9.81;100.00;100793.22;5048670;28;21003;-65
2023/01/02 10:02:03;;;;;;;0.50;0.50;;;;;;;9.94;100.00;100792.31;5042861;28;20732;-65
2023/01/02 10:04:58;;;;;;;0.83;0.83;;;;;;;10.12;100.00;100792.19;5045050;28;20232;-65
2023/01/02 10:07:34;;;;;;;0.50;0.50;;;;;;;10.22;100.00;100783.63;5050157;28;20569;-65
2023/01/02 10:10:06;;;;;;;0.50;0.50;;;;;;;10.33;100.00;100779.28;5049129;28;20254;-65
2023/01/02 10:12:41;;;;;;;0.50;0.50;;;;;;;10.37;99.37;100770.69;5048266;28;20204;-66
2023/01/02 10:15:13;;;;;;;0.60;0.60;;;;;;;10.49;98.30;100760.34;5049546;28;20204;-66
2023/01/02 10:17:48;;;;;;;0.40;0.40;;;;;;;10.59;98.19;100760.28;5049245;28;20208;-65
2023/01/02 10:20:24;;;;;;;0.40;0.40;;;;;;;10.68;97.11;100760.19;5049840;28;20222;-65
2023/01/02 10:22:55;;;;;;;0.93;0.93;;;;;;;10.53;96.17;100728.69;5049129;28;20208;-65
2023/01/02 10:25:27;;;;;;;0.50;0.50;;;;;;;10.82;96.08;100766.06;5043908;28;20263;-65
2023/01/02 10:28:00;;;;;;;0.40;0.40;;;;;;;10.96;95.73;100765.03;5042315;28;20220;-65
2023/01/02 10:30:36;;;;;;;0.57;0.57;;;;;;;10.98;95.31;100757.34;5047830;28;20610;-64
2023/01/02 10:33:10;;;;;;;0.50;0.50;;;;;;;11.09;95.94;100755.50;5049159;28;20204;-65
2023/01/02 10:35:43;;;;;;;0.50;0.50;;;;;;;11.15;96.14;100747.72;5047804;28;20792;-65
2023/01/02 10:38:11;;;;;;;1.43;1.43;;;;;;;11.25;94.49;100746.75;5047578;28;20212;-65
2023/01/02 10:40:41;;;;;;;0.50;0.50;;;;;;;11.31;94.79;100746.69;5046948;28;20201;-65
2023/01/02 10:43:10;;;;;;;0.50;0.50;;;;;;;11.38;94.19;100743.19;5048324;28;20676;-65
2023/01/02 10:45:38;;;;;;;0.50;0.50;;;;;;;11.51;93.66;100743.88;5047990;28;20268;-65
2023/01/02 10:48:05;;;;;;;1.07;1.07;;;;;;;11.60;92.98;100736.91;5047073;28;20200;-65
2023/01/02 10:50:40;;;;;;;0.40;0.40;;;;;;;11.69;93.28;100732.53;5048770;28;20201;-65
2023/01/02 10:53:09;;;;;;;0.50;0.50;;;;;;;11.77;91.39;100733.28;5047865;28;20207;-65
2023/01/02 10:55:39;;;;;;;2.40;2.20;;;;;;;11.90;92.15;100724.53;5047278;28;20553;-65
2023/01/02 10:58:13;;;;;;;0.50;0.50;;;;;;;11.99;92.40;100721.84;5048700;28;20201;-65
2023/01/02 11:00:41;;;;;;;0.80;0.80;;;;;;;12.00;90.43;100723.53;5047561;28;20208;-65
2023/01/02 11:03:14;;;;;;;0.50;0.50;;;;;;;12.09;90.43;100725.97;5048351;28;20236;-65
2023/01/02 11:05:47;;;;;;;0.73;0.70;;;;;;;12.14;89.62;100720.78;5047793;28;20205;-65
2023/01/02 11:08:15;;;;;;;0.50;0.50;;;;;;;12.23;90.20;100713.75;5048165;28;20216;-65
2023/01/02 11:10:42;;;;;;;0.70;0.70;;;;;;;12.26;89.53;100713.72;5047396;28;20209;-65
2023/01/02 11:13:12;;;;;;;0.43;0.43;;;;;;;12.33;89.32;100709.31;5046880;28;20642;-65
2023/01/02 11:15:49;;;;;;;0.60;0.60;;;;;;;12.24;89.86;100689.75;5048351;28;20588;-65
2023/01/02 11:18:28;;;;;;;0.50;0.50;;;;;;;12.45;87.64;100704.81;5048891;28;20644;-65
2023/01/02 11:21:02;;;;;;;0.53;0.53;;;;;;;12.52;86.50;100703.00;5048491;28;20209;-65
2023/01/02 11:23:33;;;;;;;0.50;0.50;;;;;;;12.60;87.45;100696.00;5047739;28;20235;-65
2023/01/02 11:26:01;;;;;;;0.50;0.50;;;;;;;12.64;85.79;100698.47;5048883;28;20201;-69
2023/01/02 11:28:32;;;;;;;1.30;0.93;;;;;;;12.69;85.53;100682.13;5049068;28;20267;-66
2023/01/02 11:31:04;;;;;;;0.50;0.50;;;;;;;12.75;85.28;100674.28;5044933;28;20215;-65
2023/01/02 11:33:33;;;;;;;2.63;1.53;;;;;;;12.85;84.20;100675.81;5048820;28;20204;-65
2023/01/02 11:36:14;;;;;;;0.50;0.50;;;;;;;12.85;84.90;100666.38;5045895;28;20198;-65
2023/01/02 11:38:44;;;;;;;0.43;0.43;;;;;;;12.87;83.64;100650.88;5049478;28;20196;-65